sensor_id;sensor_type;location;lat;lon;timestamp;temperature;humidity
20759;DHT22;10539;53.686;9.158;2022-08-04T00:00:12;22.90;99.90
20759;DHT22;10539;53.686;9.158;2022-08-04T00:03:05;22.80;99.90
20759;DHT22;10539;53.686;9.158;2022-08-04T00:16:41;22.70;99.90
20759;DHT22;10539;53.686;9.158;2022-08-04T00:19:35;22.70;99.90
20759;DHT22;10539;53.686;9.158;2022-08-04T01:42:17;22.20;99.90
20759;DHT22;10539;53.686;9.158;2022-08-04T01:44:46;22.10;99.90
20759;DHT22;10539;53.686;9.158;2022-08-04T01:47:13;22.10;99.90
20759;DHT22;10539;53.686;9.158;2022-08-04T01:49:43;22.10;99.90
20759;DHT22;10539;53.686;9.158;2022-08-04T01:52:15;22.10;99.90
20759;DHT22;10539;53.686;9.158;2022-08-04T01:54:42;22.00;99.90
20759;DHT22;10539;53.686;9.158;2022-08-04T01:57:09;22.00;99.90
20759;DHT22;10539;53.686;9.158;2022-08-04T01:59:37;22.00;99.90
20759;DHT22;10539;53.686;9.158;2022-08-04T02:02:04;22.00;99.90
20759;DHT22;10539;53.686;9.158;2022-08-04T02:04:31;22.00;99.90
20759;DHT22;10539;53.686;9.158;2022-08-04T02:12:26;21.90;99.90
20759;DHT22;10539;53.686;9.158;2022-08-04T02:17:53;21.90;99.90
20759;DHT22;10539;53.686;9.158;2022-08-04T02:23:03;21.90;99.90
20759;DHT22;10539;53.686;9.158;2022-08-04T02:25:38;21.80;99.90
20759;DHT22;10539;53.686;9.158;2022-08-04T02:28:29;21.90;99.90
20759;DHT22;10539;53.686;9.158;2022-08-04T02:33:37;21.90;99.90
20759;DHT22;10539;53.686;9.158;2022-08-04T02:36:04;21.90;99.90
20759;DHT22;10539;53.686;9.158;2022-08-04T02:41:00;21.90;99.90
20759;DHT22;10539;53.686;9.158;2022-08-04T02:43:27;21.80;99.90
20759;DHT22;10539;53.686;9.158;2022-08-04T02:45:55;21.80;99.90
20759;DHT22;10539;53.686;9.158;2022-08-04T02:48:23;21.80;99.90
20759;DHT22;10539;53.686;9.158;2022-08-04T02:50:53;21.80;99.90
20759;DHT22;10539;53.686;9.158;2022-08-04T02:53:24;21.80;99.90
20759;DHT22;10539;53.686;9.158;2022-08-04T02:55:51;21.80;99.90
20759;DHT22;10539;53.686;9.158;2022-08-04T02:58:19;21.80;99.90
20759;DHT22;10539;53.686;9.158;2022-08-04T03:00:45;21.80;99.90
20759;DHT22;10539;53.686;9.158;2022-08-04T03:06:34;21.70;99.90
20759;DHT22;10539;53.686;9.158;2022-08-04T03:18:00;21.70;99.90
20759;DHT22;10539;53.686;9.158;2022-08-04T03:44:04;21.60;99.90
20759;DHT22;10539;53.686;9.158;2022-08-04T04:05:41;21.50;99.90
20759;DHT22;10539;53.686;9.158;2022-08-04T04:16:36;21.50;99.90
20759;DHT22;10539;53.686;9.158;2022-08-04T04:22:23;21.60;99.90
20759;DHT22;10539;53.686;9.158;2022-08-04T04:28:29;21.70;99.90
20759;DHT22;10539;53.686;9.158;2022-08-04T04:33:57;21.70;99.90
20759;DHT22;10539;53.686;9.158;2022-08-04T04:40:07;21.80;99.90
20759;DHT22;10539;53.686;9.158;2022-08-04T04:43:29;21.80;99.90
20759;DHT22;10539;53.686;9.158;2022-08-04T04:49:24;21.90;99.90
20759;DHT22;10539;53.686;9.158;2022-08-04T04:52:17;21.90;99.90
20759;DHT22;10539;53.686;9.158;2022-08-04T04:55:04;22.00;99.90
20759;DHT22;10539;53.686;9.158;2022-08-04T04:57:44;22.00;99.90
20759;DHT22;10539;53.686;9.158;2022-08-04T05:28:09;22.60;99.90
20759;DHT22;10539;53.686;9.158;2022-08-04T05:31:05;22.70;99.90
20759;DHT22;10539;53.686;9.158;2022-08-04T05:34:09;22.80;99.90
20759;DHT22;10539;53.686;9.158;2022-08-04T05:37:26;22.80;99.90
20759;DHT22;10539;53.686;9.158;2022-08-04T05:40:14;22.90;99.90
20759;DHT22;10539;53.686;9.158;2022-08-04T05:42:57;23.00;99.90
20759;DHT22;10539;53.686;9.158;2022-08-04T05:50:13;23.10;99.90
20759;DHT22;10539;53.686;9.158;2022-08-04T06:12:09;23.60;99.90
20759;DHT22;10539;53.686;9.158;2022-08-04T07:02:51;26.20;99.90
20759;DHT22;10539;53.686;9.158;2022-08-04T07:31:41;30.10;99.90
20759;DHT22;10539;53.686;9.158;2022-08-04T07:34:07;29.80;99.90
20759;DHT22;10539;53.686;9.158;2022-08-04T07:36:33;29.50;99.90
20759;DHT22;10539;53.686;9.158;2022-08-04T07:39:00;29.50;99.90
20759;DHT22;10539;53.686;9.158;2022-08-04T07:41:26;29.60;99.90
20759;DHT22;10539;53.686;9.158;2022-08-04T07:43:52;29.80;99.90
20759;DHT22;10539;53.686;9.158;2022-08-04T07:46:19;29.70;99.90
20759;DHT22;10539;53.686;9.158;2022-08-04T07:48:45;29.60;99.90
20759;DHT22;10539;53.686;9.158;2022-08-04T07:51:11;29.50;99.90
20759;DHT22;10539;53.686;9.158;2022-08-04T07:53:38;29.30;99.90
20759;DHT22;10539;53.686;9.158;2022-08-04T07:56:05;29.00;99.90
20759;DHT22;10539;53.686;9.158;2022-08-04T07:58:31;28.70;99.90
20759;DHT22;10539;53.686;9.158;2022-08-04T08:00:57;28.50;99.90
20759;DHT22;10539;53.686;9.158;2022-08-04T08:03:28;28.30;99.90
20759;DHT22;10539;53.686;9.158;2022-08-04T08:06:08;28.30;99.90
20759;DHT22;10539;53.686;9.158;2022-08-04T08:08:37;28.30;99.90
20759;DHT22;10539;53.686;9.158;2022-08-04T08:11:05;28.30;99.90
20759;DHT22;10539;53.686;9.158;2022-08-04T08:13:32;28.30;99.90
20759;DHT22;10539;53.686;9.158;2022-08-04T08:15:58;28.40;99.90
20759;DHT22;10539;53.686;9.158;2022-08-04T08:18:25;28.50;99.90
20759;DHT22;10539;53.686;9.158;2022-08-04T08:20:51;28.60;99.90
20759;DHT22;10539;53.686;9.158;2022-08-04T08:23:17;28.80;99.90
20759;DHT22;10539;53.686;9.158;2022-08-04T08:25:44;29.00;99.90
20759;DHT22;10539;53.686;9.158;2022-08-04T08:28:10;29.10;99.90
20759;DHT22;10539;53.686;9.158;2022-08-04T08:30:36;29.20;99.90
20759;DHT22;10539;53.686;9.158;2022-08-04T08:33:05;29.30;99.90
20759;DHT22;10539;53.686;9.158;2022-08-04T08:35:46;29.30;99.90
20759;DHT22;10539;53.686;9.158;2022-08-04T08:38:14;29.30;99.90
20759;DHT22;10539;53.686;9.158;2022-08-04T08:40:55;29.40;99.90
20759;DHT22;10539;53.686;9.158;2022-08-04T08:46:42;29.70;99.90
20759;DHT22;10539;53.686;9.158;2022-08-04T08:52:46;29.90;99.90
20759;DHT22;10539;53.686;9.158;2022-08-04T08:58:40;30.00;99.90
20759;DHT22;10539;53.686;9.158;2022-08-04T09:01:11;30.10;99.90
20759;DHT22;10539;53.686;9.158;2022-08-04T09:11:57;30.50;99.90
20759;DHT22;10539;53.686;9.158;2022-08-04T09:14:38;30.60;99.90
20759;DHT22;10539;53.686;9.158;2022-08-04T09:17:12;30.60;99.90
20759;DHT22;10539;53.686;9.158;2022-08-04T09:19:55;30.60;99.90
20759;DHT22;10539;53.686;9.158;2022-08-04T09:22:28;30.70;99.90
20759;DHT22;10539;53.686;9.158;2022-08-04T09:25:11;30.80;99.90
20759;DHT22;10539;53.686;9.158;2022-08-04T09:27:55;31.00;99.90
20759;DHT22;10539;53.686;9.158;2022-08-04T09:30:28;31.10;99.90
20759;DHT22;10539;53.686;9.158;2022-08-04T09:35:46;31.30;99.90
20759;DHT22;10539;53.686;9.158;2022-08-04T09:38:19;31.40;99.90
20759;DHT22;10539;53.686;9.158;2022-08-04T09:41:11;31.40;99.90
20759;DHT22;10539;53.686;9.158;2022-08-04T09:54:48;31.90;99.90
20759;DHT22;10539;53.686;9.158;2022-08-04T10:00:26;32.20;99.90
20759;DHT22;10539;53.686;9.158;2022-08-04T10:02:55;32.40;99.90
20759;DHT22;10539;53.686;9.158;2022-08-04T10:06:05;32.50;99.90
20759;DHT22;10539;53.686;9.158;2022-08-04T10:11:15;32.70;99.60
20759;DHT22;10539;53.686;9.158;2022-08-04T10:19:26;33.00;96.30
20759;DHT22;10539;53.686;9.158;2022-08-04T10:22:03;33.00;96.10
20759;DHT22;10539;53.686;9.158;2022-08-04T10:24:38;33.10;96.00
20759;DHT22;10539;53.686;9.158;2022-08-04T10:27:11;33.20;95.90
20759;DHT22;10539;53.686;9.158;2022-08-04T10:29:43;33.20;95.90
20759;DHT22;10539;53.686;9.158;2022-08-04T10:40:07;33.10;94.00
20759;DHT22;10539;53.686;9.158;2022-08-04T10:45:44;33.10;95.70
20759;DHT22;10539;53.686;9.158;2022-08-04T10:48:35;33.20;94.80
20759;DHT22;10539;53.686;9.158;2022-08-04T10:54:00;33.40;96.10
20759;DHT22;10539;53.686;9.158;2022-08-04T10:56:43;33.50;95.10
20759;DHT22;10539;53.686;9.158;2022-08-04T10:59:38;33.50;94.80
20759;DHT22;10539;53.686;9.158;2022-08-04T11:02:24;33.50;94.50
20759;DHT22;10539;53.686;9.158;2022-08-04T11:05:19;33.60;93.80
20759;DHT22;10539;53.686;9.158;2022-08-04T11:07:50;33.80;92.30
20759;DHT22;10539;53.686;9.158;2022-08-04T11:10:20;33.80;91.60
20759;DHT22;10539;53.686;9.158;2022-08-04T11:12:51;33.80;92.30
20759;DHT22;10539;53.686;9.158;2022-08-04T11:15:21;33.90;92.50
20759;DHT22;10539;53.686;9.158;2022-08-04T11:18:04;34.00;92.20
20759;DHT22;10539;53.686;9.158;2022-08-04T11:21:24;34.10;91.60
20759;DHT22;10539;53.686;9.158;2022-08-04T11:24:00;34.20;91.10
20759;DHT22;10539;53.686;9.158;2022-08-04T11:26:55;34.20;90.50
20759;DHT22;10539;53.686;9.158;2022-08-04T11:29:55;34.30;89.60
20759;DHT22;10539;53.686;9.158;2022-08-04T11:32:44;34.30;91.20
20759;DHT22;10539;53.686;9.158;2022-08-04T11:38:11;34.30;90.50
20759;DHT22;10539;53.686;9.158;2022-08-04T11:40:42;34.30;90.40
20759;DHT22;10539;53.686;9.158;2022-08-04T11:43:15;34.40;89.80
20759;DHT22;10539;53.686;9.158;2022-08-04T11:45:59;34.50;89.90
20759;DHT22;10539;53.686;9.158;2022-08-04T11:48:34;34.60;90.20
20759;DHT22;10539;53.686;9.158;2022-08-04T11:51:01;34.60;88.50
20759;DHT22;10539;53.686;9.158;2022-08-04T11:53:31;34.60;88.80
20759;DHT22;10539;53.686;9.158;2022-08-04T11:56:02;34.70;88.80
20759;DHT22;10539;53.686;9.158;2022-08-04T11:58:28;34.70;88.80
20759;DHT22;10539;53.686;9.158;2022-08-04T12:01:14;34.70;89.70
20759;DHT22;10539;53.686;9.158;2022-08-04T12:04:06;34.70;89.30
20759;DHT22;10539;53.686;9.158;2022-08-04T12:06:50;34.60;88.30
20759;DHT22;10539;53.686;9.158;2022-08-04T12:09:21;34.60;88.40
20759;DHT22;10539;53.686;9.158;2022-08-04T12:17:48;34.70;89.00
20759;DHT22;10539;53.686;9.158;2022-08-04T12:20:22;34.70;88.10
20759;DHT22;10539;53.686;9.158;2022-08-04T12:22:50;34.70;88.50
20759;DHT22;10539;53.686;9.158;2022-08-04T12:25:33;34.80;89.30
20759;DHT22;10539;53.686;9.158;2022-08-04T12:28:04;34.90;88.40
20759;DHT22;10539;53.686;9.158;2022-08-04T12:30:41;34.90;87.10
20759;DHT22;10539;53.686;9.158;2022-08-04T12:38:09;35.00;86.90
20759;DHT22;10539;53.686;9.158;2022-08-04T12:40:48;35.10;86.70
20759;DHT22;10539;53.686;9.158;2022-08-04T12:43:37;35.00;85.30
20759;DHT22;10539;53.686;9.158;2022-08-04T12:46:05;34.90;94.20
20759;DHT22;10539;53.686;9.158;2022-08-04T12:48:35;34.30;97.10
20759;DHT22;10539;53.686;9.158;2022-08-04T12:51:01;33.60;99.90
20759;DHT22;10539;53.686;9.158;2022-08-04T12:53:37;32.80;99.90
20759;DHT22;10539;53.686;9.158;2022-08-04T12:56:05;32.40;99.90
20759;DHT22;10539;53.686;9.158;2022-08-04T12:58:36;32.10;99.90
20759;DHT22;10539;53.686;9.158;2022-08-04T13:01:06;31.90;99.90
20759;DHT22;10539;53.686;9.158;2022-08-04T13:06:33;31.90;99.90
20759;DHT22;10539;53.686;9.158;2022-08-04T13:09:27;31.60;99.90
20759;DHT22;10539;53.686;9.158;2022-08-04T13:12:04;31.50;99.90
20759;DHT22;10539;53.686;9.158;2022-08-04T13:14:36;31.50;99.90
20759;DHT22;10539;53.686;9.158;2022-08-04T13:17:04;31.50;99.90
20759;DHT22;10539;53.686;9.158;2022-08-04T13:19:31;31.40;99.90
20759;DHT22;10539;53.686;9.158;2022-08-04T13:21:58;31.40;99.90
20759;DHT22;10539;53.686;9.158;2022-08-04T13:24:26;31.40;99.90
20759;DHT22;10539;53.686;9.158;2022-08-04T13:27:05;31.50;99.90
20759;DHT22;10539;53.686;9.158;2022-08-04T13:29:45;31.60;99.90
20759;DHT22;10539;53.686;9.158;2022-08-04T13:32:19;31.60;99.90
20759;DHT22;10539;53.686;9.158;2022-08-04T13:34:48;31.60;99.90
20759;DHT22;10539;53.686;9.158;2022-08-04T13:37:16;31.60;99.90
20759;DHT22;10539;53.686;9.158;2022-08-04T13:39:45;31.60;99.90
20759;DHT22;10539;53.686;9.158;2022-08-04T13:42:13;31.70;99.90
20759;DHT22;10539;53.686;9.158;2022-08-04T13:44:40;31.70;99.90
20759;DHT22;10539;53.686;9.158;2022-08-04T13:47:11;31.70;99.90
20759;DHT22;10539;53.686;9.158;2022-08-04T13:49:38;31.90;99.90
20759;DHT22;10539;53.686;9.158;2022-08-04T13:52:07;31.90;99.90
20759;DHT22;10539;53.686;9.158;2022-08-04T13:54:41;31.90;99.90
20759;DHT22;10539;53.686;9.158;2022-08-04T13:57:32;31.90;99.90
20759;DHT22;10539;53.686;9.158;2022-08-04T14:00:04;31.70;99.90
20759;DHT22;10539;53.686;9.158;2022-08-04T14:02:42;31.60;99.90
20759;DHT22;10539;53.686;9.158;2022-08-04T14:05:16;31.40;99.90
20759;DHT22;10539;53.686;9.158;2022-08-04T14:07:46;31.20;99.90
20759;DHT22;10539;53.686;9.158;2022-08-04T14:10:14;31.20;99.90
20759;DHT22;10539;53.686;9.158;2022-08-04T14:12:47;31.30;99.90
20759;DHT22;10539;53.686;9.158;2022-08-04T14:15:43;31.30;99.90
20759;DHT22;10539;53.686;9.158;2022-08-04T14:18:24;31.20;99.90
20759;DHT22;10539;53.686;9.158;2022-08-04T14:20:58;31.00;99.90
20759;DHT22;10539;53.686;9.158;2022-08-04T14:23:25;30.70;99.90
20759;DHT22;10539;53.686;9.158;2022-08-04T14:25:51;30.60;99.90
20759;DHT22;10539;53.686;9.158;2022-08-04T14:28:27;30.50;99.90
20759;DHT22;10539;53.686;9.158;2022-08-04T14:31:08;30.50;99.90
20759;DHT22;10539;53.686;9.158;2022-08-04T14:33:39;30.60;99.90
20759;DHT22;10539;53.686;9.158;2022-08-04T14:36:06;30.50;99.50
20759;DHT22;10539;53.686;9.158;2022-08-04T14:41:10;30.30;99.10
20759;DHT22;10539;53.686;9.158;2022-08-04T14:43:44;30.00;99.10
20759;DHT22;10539;53.686;9.158;2022-08-04T14:46:11;29.80;99.40
20759;DHT22;10539;53.686;9.158;2022-08-04T14:48:40;29.60;99.70
20759;DHT22;10539;53.686;9.158;2022-08-04T14:51:23;29.40;99.90
20759;DHT22;10539;53.686;9.158;2022-08-04T14:53:49;29.20;99.90
20759;DHT22;10539;53.686;9.158;2022-08-04T14:56:14;29.10;99.90
20759;DHT22;10539;53.686;9.158;2022-08-04T14:58:41;29.00;99.90
20759;DHT22;10539;53.686;9.158;2022-08-04T15:01:09;28.80;99.90
20759;DHT22;10539;53.686;9.158;2022-08-04T15:03:41;28.60;99.90
20759;DHT22;10539;53.686;9.158;2022-08-04T15:06:08;28.40;99.90
20759;DHT22;10539;53.686;9.158;2022-08-04T15:08:34;28.30;99.90
20759;DHT22;10539;53.686;9.158;2022-08-04T15:11:00;28.20;99.90
20759;DHT22;10539;53.686;9.158;2022-08-04T15:13:28;28.10;99.90
20759;DHT22;10539;53.686;9.158;2022-08-04T15:15:54;28.00;99.90
20759;DHT22;10539;53.686;9.158;2022-08-04T15:18:21;28.00;99.90
20759;DHT22;10539;53.686;9.158;2022-08-04T15:20:47;27.80;99.90
20759;DHT22;10539;53.686;9.158;2022-08-04T15:23:13;27.80;99.90
20759;DHT22;10539;53.686;9.158;2022-08-04T15:25:48;27.70;99.90
20759;DHT22;10539;53.686;9.158;2022-08-04T15:28:18;27.80;99.90
20759;DHT22;10539;53.686;9.158;2022-08-04T15:30:48;27.70;99.90
20759;DHT22;10539;53.686;9.158;2022-08-04T15:33:16;27.60;99.90
20759;DHT22;10539;53.686;9.158;2022-08-04T15:35:49;27.60;99.90
20759;DHT22;10539;53.686;9.158;2022-08-04T15:38:35;27.60;99.90
20759;DHT22;10539;53.686;9.158;2022-08-04T15:41:15;27.60;99.90
20759;DHT22;10539;53.686;9.158;2022-08-04T15:44:16;27.50;99.90
20759;DHT22;10539;53.686;9.158;2022-08-04T15:49:21;27.10;99.90
20759;DHT22;10539;53.686;9.158;2022-08-04T15:52:02;26.90;99.90
20759;DHT22;10539;53.686;9.158;2022-08-04T15:54:28;26.80;99.90
20759;DHT22;10539;53.686;9.158;2022-08-04T15:56:54;26.70;99.90
20759;DHT22;10539;53.686;9.158;2022-08-04T16:07:52;26.70;99.90
20759;DHT22;10539;53.686;9.158;2022-08-04T16:10:43;26.70;99.90
20759;DHT22;10539;53.686;9.158;2022-08-04T16:13:11;26.70;99.90
20759;DHT22;10539;53.686;9.158;2022-08-04T16:15:42;26.70;99.90
20759;DHT22;10539;53.686;9.158;2022-08-04T16:18:10;26.80;99.90
20759;DHT22;10539;53.686;9.158;2022-08-04T16:20:37;26.80;99.90
20759;DHT22;10539;53.686;9.158;2022-08-04T16:23:20;26.80;99.90
20759;DHT22;10539;53.686;9.158;2022-08-04T16:25:55;26.90;99.90
20759;DHT22;10539;53.686;9.158;2022-08-04T16:28:38;26.90;99.90
20759;DHT22;10539;53.686;9.158;2022-08-04T16:31:10;26.80;99.90
20759;DHT22;10539;53.686;9.158;2022-08-04T16:33:37;26.30;99.90
20759;DHT22;10539;53.686;9.158;2022-08-04T16:36:06;26.10;99.90
20759;DHT22;10539;53.686;9.158;2022-08-04T16:38:59;26.30;99.90
20759;DHT22;10539;53.686;9.158;2022-08-04T16:41:41;26.50;99.90
20759;DHT22;10539;53.686;9.158;2022-08-04T16:44:28;26.70;99.90
20759;DHT22;10539;53.686;9.158;2022-08-04T16:46:59;26.80;99.90
20759;DHT22;10539;53.686;9.158;2022-08-04T16:49:28;26.80;99.90
20759;DHT22;10539;53.686;9.158;2022-08-04T16:52:05;26.70;99.90
20759;DHT22;10539;53.686;9.158;2022-08-04T16:54:34;26.50;99.90
20759;DHT22;10539;53.686;9.158;2022-08-04T16:57:08;26.40;99.90
20759;DHT22;10539;53.686;9.158;2022-08-04T16:59:34;26.40;99.90
20759;DHT22;10539;53.686;9.158;2022-08-04T17:02:00;26.40;99.90
20759;DHT22;10539;53.686;9.158;2022-08-04T17:04:32;26.40;99.90
20759;DHT22;10539;53.686;9.158;2022-08-04T17:06:59;26.40;99.90
20759;DHT22;10539;53.686;9.158;2022-08-04T17:09:25;26.40;99.90
20759;DHT22;10539;53.686;9.158;2022-08-04T17:11:51;26.30;99.90
20759;DHT22;10539;53.686;9.158;2022-08-04T17:14:22;26.20;99.90
20759;DHT22;10539;53.686;9.158;2022-08-04T17:16:48;26.00;99.90
20759;DHT22;10539;53.686;9.158;2022-08-04T17:19:14;26.00;99.90
20759;DHT22;10539;53.686;9.158;2022-08-04T17:21:41;25.90;99.90
20759;DHT22;10539;53.686;9.158;2022-08-04T17:24:07;25.90;99.90
20759;DHT22;10539;53.686;9.158;2022-08-04T17:26:35;26.00;99.90
20759;DHT22;10539;53.686;9.158;2022-08-04T17:29:00;26.00;99.90
20759;DHT22;10539;53.686;9.158;2022-08-04T17:31:27;26.00;99.90
20759;DHT22;10539;53.686;9.158;2022-08-04T17:33:56;25.90;99.90
20759;DHT22;10539;53.686;9.158;2022-08-04T17:36:31;25.80;99.90
20759;DHT22;10539;53.686;9.158;2022-08-04T17:39:00;25.80;99.90
20759;DHT22;10539;53.686;9.158;2022-08-04T17:41:28;25.70;99.90
20759;DHT22;10539;53.686;9.158;2022-08-04T17:43:57;25.70;99.90
20759;DHT22;10539;53.686;9.158;2022-08-04T17:46:40;25.60;99.90
20759;DHT22;10539;53.686;9.158;2022-08-04T17:51:40;25.30;99.90
20759;DHT22;10539;53.686;9.158;2022-08-04T17:54:07;25.20;99.90
20759;DHT22;10539;53.686;9.158;2022-08-04T17:59:17;25.00;99.90
20759;DHT22;10539;53.686;9.158;2022-08-04T18:01:44;25.00;99.90
20759;DHT22;10539;53.686;9.158;2022-08-04T18:06:56;24.80;99.90
20759;DHT22;10539;53.686;9.158;2022-08-04T18:14:21;24.50;99.90
20759;DHT22;10539;53.686;9.158;2022-08-04T18:16:47;24.60;99.90
20759;DHT22;10539;53.686;9.158;2022-08-04T18:19:15;24.50;99.90
20759;DHT22;10539;53.686;9.158;2022-08-04T18:21:41;24.50;99.90
20759;DHT22;10539;53.686;9.158;2022-08-04T18:24:08;24.40;99.90
20759;DHT22;10539;53.686;9.158;2022-08-04T18:26:33;24.30;99.90
20759;DHT22;10539;53.686;9.158;2022-08-04T18:29:03;24.30;99.90
20759;DHT22;10539;53.686;9.158;2022-08-04T18:31:30;24.20;99.90
20759;DHT22;10539;53.686;9.158;2022-08-04T18:33:56;24.10;99.90
20759;DHT22;10539;53.686;9.158;2022-08-04T18:36:21;24.10;99.90
20759;DHT22;10539;53.686;9.158;2022-08-04T18:38:47;24.00;99.90
20759;DHT22;10539;53.686;9.158;2022-08-04T18:41:12;24.00;99.90
20759;DHT22;10539;53.686;9.158;2022-08-04T18:43:38;24.00;99.90
20759;DHT22;10539;53.686;9.158;2022-08-04T18:46:04;24.00;99.90
20759;DHT22;10539;53.686;9.158;2022-08-04T18:48:30;24.10;99.90
20759;DHT22;10539;53.686;9.158;2022-08-04T18:50:56;24.10;99.90
20759;DHT22;10539;53.686;9.158;2022-08-04T18:53:21;24.10;99.90
20759;DHT22;10539;53.686;9.158;2022-08-04T18:55:47;24.20;99.90
20759;DHT22;10539;53.686;9.158;2022-08-04T18:58:13;24.20;99.90
20759;DHT22;10539;53.686;9.158;2022-08-04T19:00:39;24.10;99.90
20759;DHT22;10539;53.686;9.158;2022-08-04T19:03:04;24.00;99.90
20759;DHT22;10539;53.686;9.158;2022-08-04T19:05:30;23.80;99.90
20759;DHT22;10539;53.686;9.158;2022-08-04T19:07:57;23.70;99.90
20759;DHT22;10539;53.686;9.158;2022-08-04T19:10:23;23.60;99.90
20759;DHT22;10539;53.686;9.158;2022-08-04T19:12:49;23.50;99.90
20759;DHT22;10539;53.686;9.158;2022-08-04T19:15:14;23.50;99.90
20759;DHT22;10539;53.686;9.158;2022-08-04T19:17:40;23.50;99.90
20759;DHT22;10539;53.686;9.158;2022-08-04T19:20:06;23.40;99.90
20759;DHT22;10539;53.686;9.158;2022-08-04T19:22:32;23.40;99.90
20759;DHT22;10539;53.686;9.158;2022-08-04T19:24:57;23.40;99.90
20759;DHT22;10539;53.686;9.158;2022-08-04T19:27:23;23.40;99.90
20759;DHT22;10539;53.686;9.158;2022-08-04T19:29:49;23.40;99.90
20759;DHT22;10539;53.686;9.158;2022-08-04T19:32:15;23.50;99.90
20759;DHT22;10539;53.686;9.158;2022-08-04T19:34:42;23.50;99.90
20759;DHT22;10539;53.686;9.158;2022-08-04T19:37:07;23.50;99.90
20759;DHT22;10539;53.686;9.158;2022-08-04T19:39:33;23.40;99.90
20759;DHT22;10539;53.686;9.158;2022-08-04T19:41:59;23.30;99.90
20759;DHT22;10539;53.686;9.158;2022-08-04T19:44:25;23.20;99.90
20759;DHT22;10539;53.686;9.158;2022-08-04T19:46:51;23.20;99.90
20759;DHT22;10539;53.686;9.158;2022-08-04T19:49:16;23.10;99.90
20759;DHT22;10539;53.686;9.158;2022-08-04T19:51:42;23.10;99.90
20759;DHT22;10539;53.686;9.158;2022-08-04T19:54:08;23.10;99.90
20759;DHT22;10539;53.686;9.158;2022-08-04T19:56:34;23.00;99.90
20759;DHT22;10539;53.686;9.158;2022-08-04T19:58:59;23.00;99.90
20759;DHT22;10539;53.686;9.158;2022-08-04T20:01:25;23.00;99.90
20759;DHT22;10539;53.686;9.158;2022-08-04T20:03:51;22.90;99.90
20759;DHT22;10539;53.686;9.158;2022-08-04T20:06:17;22.90;99.90
20759;DHT22;10539;53.686;9.158;2022-08-04T20:08:42;22.90;99.90
20759;DHT22;10539;53.686;9.158;2022-08-04T20:11:08;22.80;99.90
20759;DHT22;10539;53.686;9.158;2022-08-04T20:13:35;22.90;99.90
20759;DHT22;10539;53.686;9.158;2022-08-04T20:16:00;22.90;99.90
20759;DHT22;10539;53.686;9.158;2022-08-04T20:18:27;22.80;99.90
20759;DHT22;10539;53.686;9.158;2022-08-04T20:20:53;22.90;99.90
20759;DHT22;10539;53.686;9.158;2022-08-04T20:23:18;22.90;99.90
20759;DHT22;10539;53.686;9.158;2022-08-04T20:25:44;22.80;99.90
20759;DHT22;10539;53.686;9.158;2022-08-04T20:28:10;22.80;99.90
20759;DHT22;10539;53.686;9.158;2022-08-04T20:30:36;22.80;99.90
20759;DHT22;10539;53.686;9.158;2022-08-04T20:33:02;22.80;99.90
20759;DHT22;10539;53.686;9.158;2022-08-04T20:35:28;22.70;99.90
20759;DHT22;10539;53.686;9.158;2022-08-04T20:37:54;22.60;99.90
20759;DHT22;10539;53.686;9.158;2022-08-04T20:40:20;22.60;99.90
20759;DHT22;10539;53.686;9.158;2022-08-04T20:42:46;22.60;99.90
20759;DHT22;10539;53.686;9.158;2022-08-04T20:45:12;22.60;99.90
20759;DHT22;10539;53.686;9.158;2022-08-04T20:47:37;22.60;99.90
20759;DHT22;10539;53.686;9.158;2022-08-04T20:50:06;22.60;99.90
20759;DHT22;10539;53.686;9.158;2022-08-04T20:52:32;22.60;99.90
20759;DHT22;10539;53.686;9.158;2022-08-04T20:55:00;22.50;99.90
20759;DHT22;10539;53.686;9.158;2022-08-04T20:57:26;22.50;99.90
20759;DHT22;10539;53.686;9.158;2022-08-04T20:59:52;22.50;99.90
20759;DHT22;10539;53.686;9.158;2022-08-04T21:02:17;22.50;99.90
20759;DHT22;10539;53.686;9.158;2022-08-04T21:04:45;22.40;99.90
20759;DHT22;10539;53.686;9.158;2022-08-04T21:07:11;22.30;99.90
20759;DHT22;10539;53.686;9.158;2022-08-04T21:09:39;22.30;99.90
20759;DHT22;10539;53.686;9.158;2022-08-04T21:12:06;22.20;99.90
20759;DHT22;10539;53.686;9.158;2022-08-04T21:14:32;22.20;99.90
20759;DHT22;10539;53.686;9.158;2022-08-04T21:16:58;22.10;99.90
20759;DHT22;10539;53.686;9.158;2022-08-04T21:19:25;22.10;99.90
20759;DHT22;10539;53.686;9.158;2022-08-04T21:21:52;22.00;99.90
20759;DHT22;10539;53.686;9.158;2022-08-04T21:24:19;22.00;99.90
20759;DHT22;10539;53.686;9.158;2022-08-04T21:26:50;22.00;99.90
20759;DHT22;10539;53.686;9.158;2022-08-04T21:29:16;22.00;99.90
20759;DHT22;10539;53.686;9.158;2022-08-04T21:31:43;21.90;99.90
20759;DHT22;10539;53.686;9.158;2022-08-04T21:34:10;21.90;99.90
20759;DHT22;10539;53.686;9.158;2022-08-04T21:36:35;21.90;99.90
20759;DHT22;10539;53.686;9.158;2022-08-04T21:39:01;21.80;99.90
20759;DHT22;10539;53.686;9.158;2022-08-04T21:41:27;21.80;99.90
20759;DHT22;10539;53.686;9.158;2022-08-04T21:43:53;21.80;99.90
20759;DHT22;10539;53.686;9.158;2022-08-04T21:46:18;21.80;99.90
20759;DHT22;10539;53.686;9.158;2022-08-04T21:48:44;21.80;99.90
20759;DHT22;10539;53.686;9.158;2022-08-04T21:51:18;21.80;99.90
20759;DHT22;10539;53.686;9.158;2022-08-04T21:53:44;21.70;99.90
20759;DHT22;10539;53.686;9.158;2022-08-04T21:56:10;21.70;99.90
20759;DHT22;10539;53.686;9.158;2022-08-04T21:58:37;21.70;99.90
20759;DHT22;10539;53.686;9.158;2022-08-04T22:01:04;21.70;99.90
20759;DHT22;10539;53.686;9.158;2022-08-04T22:03:33;21.70;99.90
20759;DHT22;10539;53.686;9.158;2022-08-04T22:05:58;21.70;99.90
20759;DHT22;10539;53.686;9.158;2022-08-04T22:08:24;21.70;99.90
20759;DHT22;10539;53.686;9.158;2022-08-04T22:10:50;21.70;99.90
20759;DHT22;10539;53.686;9.158;2022-08-04T22:13:16;21.70;99.90
20759;DHT22;10539;53.686;9.158;2022-08-04T22:15:42;21.60;99.90
20759;DHT22;10539;53.686;9.158;2022-08-04T22:18:07;21.60;99.90
20759;DHT22;10539;53.686;9.158;2022-08-04T22:20:33;21.60;99.90
20759;DHT22;10539;53.686;9.158;2022-08-04T22:22:58;21.60;99.90
20759;DHT22;10539;53.686;9.158;2022-08-04T22:25:24;21.50;99.90
20759;DHT22;10539;53.686;9.158;2022-08-04T22:27:50;21.50;99.90
20759;DHT22;10539;53.686;9.158;2022-08-04T22:30:30;21.60;99.90
20759;DHT22;10539;53.686;9.158;2022-08-04T22:32:56;21.60;99.90
20759;DHT22;10539;53.686;9.158;2022-08-04T22:35:22;21.50;99.90
20759;DHT22;10539;53.686;9.158;2022-08-04T22:37:48;21.50;99.90
20759;DHT22;10539;53.686;9.158;2022-08-04T22:40:14;21.50;99.90
20759;DHT22;10539;53.686;9.158;2022-08-04T22:42:39;21.50;99.90
20759;DHT22;10539;53.686;9.158;2022-08-04T22:45:07;21.40;99.90
20759;DHT22;10539;53.686;9.158;2022-08-04T22:47:36;21.40;99.90
20759;DHT22;10539;53.686;9.158;2022-08-04T22:50:01;21.40;99.90